KHOT/HOT METAR and TAF weather

Enter ICAO airport designator
Station Type Date Time Source
KHOT METAR 2020/07/12 02:53 UTC NOAA

KHOT 120253Z AUTO 00000KT 10SM CLR 29/26 A2992 RMK AO2 SLP124 T02940256 55004


Station Type Date Time Source
KHOT Decoded METAR 2020/07/12 02:53 UTC NOAA

HOT SPRINGS MEMORIAL FIELD, AR, United States (KHOT) 34-29N 093-06W 162M
Jul 11, 2020 - 10:53 PM EDT / 2020.07.12 0253 UTC
Wind: Calm:0
Visibility: 10 mile(s):0
Sky conditions: clear
Temperature: 84.9 F (29.4 C)
Dew Point: 78.1 F (25.6 C)
Relative Humidity: 80%
Pressure (altimeter): 29.92 in. Hg (1013 hPa)
Pressure tendency: 0.01 inches (0.4 hPa) lower than three hours ago
ob: KHOT 120253Z AUTO 00000KT 10SM CLR 29/26 A2992 RMK AO2 SLP124 T02940256 55004
cycle: 3

Station Type Date Time Source
KHOT TAF 2020/07/11 18:42 UTC NOAA

TAF KHOT 111739Z 1118/1218 23007KT P6SM SCT040
FM120000 24003KT P6SM SCT250
FM121000 23005KT 5SM TSRA BR OVC040CB

Example: see airport list